Huvudsida
METAR-TAF:

METAR-TAF

Flygplatser :

Nyslotts flygplats

Nyslott, Finland

latitud: 61-57N, longitud: 028-57E, höjd: 95 m

Aktuellt väderrapport

Denna rapport gjordes för 32 minuter sedan, klockan 14:20 UTC
Vind 9 kt från väst/sydväst, varierande mellan syd/sydväst och väst/nordväst
Temperatur 19°C
Fuktighet 30%
Tryck 1024 hPa
Sikt 10 km eller mer
Inga moln under 1 500 m eller inga cumulonimbus

METAR: EFSA 231420Z AUTO 25009KT 210V300 CAVOK 19/01 Q1024

Tid: 17:52 (14:52 UTC)


TAF: saknas

Aktuella väderrapporter och prognoser från 4000 flygplatser (METAR- och TAF-rapporter).

De tillgängliga stationerna syns som gula och röda prickar på kartan.

För musen över prickarna för att se namnen på stationerna.

Klicka sedan för att få väderrapporter och prognoser.

För att ändra kartan: Klicka på de gröna knapparna med ett svart kors på för att zooma in; den gröna knappen med ett streck på för att zooma ut; eller på de gröna pilarna för angränsande kartor.


METAR-TAF: